createdAt,value
2022-12-31T00:01:26.844Z,100024.40
2022-12-31T00:03:56.079Z,100028.00
2022-12-31T00:06:34.411Z,100016.20
2022-12-31T00:09:07.203Z,100012.00
2022-12-31T00:11:36.550Z,100009.00
2022-12-31T00:14:05.724Z,100008.80
2022-12-31T00:16:38.136Z,100007.00
2022-12-31T00:19:09.031Z,100006.60
2022-12-31T00:21:38.884Z,100008.00
2022-12-31T00:24:08.094Z,100001.60
2022-12-31T00:26:36.345Z,99999.40
2022-12-31T00:29:05.575Z,99999.60
2022-12-31T00:31:38.545Z,99995.80
2022-12-31T00:34:07.324Z,99999.60
2022-12-31T00:36:38.977Z,100002.80
2022-12-31T00:39:08.625Z,99981.80
2022-12-31T00:41:36.553Z,99980.00
2022-12-31T00:44:04.867Z,99984.20
2022-12-31T00:46:33.022Z,99998.20
2022-12-31T00:49:01.041Z,100002.00
2022-12-31T00:51:29.558Z,100008.20
2022-12-31T00:53:58.399Z,100019.60
2022-12-31T00:56:30.577Z,100012.20
2022-12-31T00:59:00.407Z,100006.40
2022-12-31T01:01:33.010Z,100005.00
2022-12-31T01:04:06.073Z,100000.60
2022-12-31T01:06:34.711Z,99999.00
2022-12-31T01:09:04.356Z,99997.60
2022-12-31T01:11:33.379Z,99994.80
2022-12-31T01:14:06.570Z,99987.00
2022-12-31T01:16:42.140Z,99984.00
2022-12-31T01:19:25.265Z,99977.80
2022-12-31T01:21:54.179Z,99964.80
2022-12-31T01:24:22.495Z,99968.60
2022-12-31T01:26:51.526Z,99975.20
2022-12-31T01:29:19.673Z,99979.00
2022-12-31T01:31:47.601Z,99980.60
2022-12-31T01:34:15.467Z,99975.60
2022-12-31T01:36:43.372Z,99975.80
2022-12-31T01:39:12.274Z,99966.80
2022-12-31T01:41:44.992Z,99960.20
2022-12-31T01:44:12.849Z,99965.80
2022-12-31T01:46:44.255Z,99972.20
2022-12-31T01:49:45.460Z,99964.00
2022-12-31T01:52:32.728Z,99964.20
2022-12-31T01:55:26.365Z,99953.20
2022-12-31T01:58:01.659Z,99948.40
2022-12-31T02:00:29.670Z,99954.20
2022-12-31T02:02:58.004Z,99950.20
2022-12-31T02:05:38.412Z,99952.20
2022-12-31T02:08:07.689Z,99953.00
2022-12-31T02:10:35.743Z,99952.20
2022-12-31T02:13:03.967Z,99951.80
2022-12-31T02:16:20.038Z,99963.40
2022-12-31T02:19:18.594Z,99957.80
2022-12-31T02:22:22.940Z,99947.80
2022-12-31T02:25:15.960Z,99934.00
2022-12-31T02:28:30.197Z,99928.20
2022-12-31T02:31:22.090Z,99919.40
2022-12-31T02:34:13.659Z,99917.20
2022-12-31T02:36:46.964Z,99907.20
2022-12-31T02:39:15.867Z,99904.20
2022-12-31T02:41:52.584Z,99904.20
2022-12-31T02:44:35.038Z,99920.60
2022-12-31T02:47:09.168Z,99931.60
2022-12-31T02:50:01.702Z,99925.60
2022-12-31T02:52:57.251Z,99931.80
2022-12-31T02:55:49.366Z,99929.40
2022-12-31T02:58:51.540Z,99926.40
2022-12-31T03:01:46.994Z,99923.00
2022-12-31T03:04:32.503Z,99926.60
2022-12-31T03:07:04.693Z,99940.80
2022-12-31T03:09:33.631Z,99943.00
2022-12-31T03:12:21.939Z,99942.40
2022-12-31T03:14:50.536Z,99930.60
2022-12-31T03:17:18.484Z,99917.20
2022-12-31T03:20:05.331Z,99916.60
2022-12-31T03:22:39.583Z,99923.60
2022-12-31T03:25:33.501Z,99923.60
2022-12-31T03:28:14.083Z,99929.20
2022-12-31T03:30:47.095Z,99935.00
2022-12-31T03:33:16.199Z,99937.40
2022-12-31T03:35:46.881Z,99925.60
2022-12-31T03:38:17.212Z,99926.60
2022-12-31T03:40:49.631Z,99928.60
2022-12-31T03:43:19.669Z,99942.00
2022-12-31T03:45:52.844Z,99945.80
2022-12-31T03:48:23.317Z,99953.20
2022-12-31T03:50:51.683Z,99949.00
2022-12-31T03:53:19.973Z,99964.20
2022-12-31T03:55:54.676Z,99957.20
2022-12-31T03:58:22.909Z,99968.00
2022-12-31T04:00:51.365Z,99976.00
2022-12-31T04:03:19.375Z,99975.40
2022-12-31T04:05:54.458Z,99983.80
2022-12-31T04:08:22.959Z,99980.60
2022-12-31T04:10:51.085Z,99984.60
2022-12-31T04:13:18.953Z,99980.40
2022-12-31T04:15:51.459Z,99978.20
2022-12-31T04:18:19.493Z,99975.80
2022-12-31T04:20:47.420Z,99981.20
2022-12-31T04:23:15.287Z,99989.80
2022-12-31T04:25:43.110Z,99987.20
2022-12-31T04:28:11.025Z,99977.60
2022-12-31T04:30:40.160Z,99984.80
2022-12-31T04:33:08.087Z,99979.00
2022-12-31T04:35:35.967Z,99973.80
2022-12-31T04:38:04.123Z,99977.60
2022-12-31T04:40:32.419Z,99960.20
2022-12-31T04:43:00.316Z,99965.60
2022-12-31T04:45:28.237Z,99978.80
2022-12-31T04:47:56.170Z,99985.60
2022-12-31T04:50:23.997Z,99986.80
2022-12-31T04:52:51.840Z,99991.00
2022-12-31T04:55:19.625Z,99990.20
2022-12-31T04:57:47.534Z,99994.40
2022-12-31T05:00:15.738Z,99994.80
2022-12-31T05:02:43.765Z,99991.60
2022-12-31T05:05:11.719Z,100000.60
2022-12-31T05:07:39.610Z,99998.00
2022-12-31T05:10:08.323Z,99995.20
2022-12-31T05:12:36.262Z,99994.40
2022-12-31T05:15:04.646Z,99997.80
2022-12-31T05:17:32.512Z,99998.20
2022-12-31T05:20:00.301Z,99996.60
2022-12-31T05:22:31.446Z,99994.00
2022-12-31T05:25:00.826Z,99977.20
2022-12-31T05:27:31.423Z,99981.00
2022-12-31T05:30:00.288Z,99990.20
2022-12-31T05:32:28.399Z,99996.80
2022-12-31T05:34:57.905Z,100005.40
2022-12-31T05:37:28.480Z,99999.00
2022-12-31T05:39:57.109Z,99988.00
2022-12-31T05:42:25.813Z,99989.40
2022-12-31T05:44:53.613Z,99993.20
2022-12-31T05:47:21.946Z,99988.60
2022-12-31T05:49:50.284Z,99986.20
2022-12-31T05:52:20.360Z,99996.40
2022-12-31T05:54:48.313Z,99991.00
2022-12-31T05:57:16.321Z,99995.80
2022-12-31T05:59:44.181Z,100000.20
2022-12-31T06:02:12.052Z,99999.60
2022-12-31T06:04:39.933Z,100003.20
2022-12-31T06:07:07.785Z,99995.80
2022-12-31T06:09:35.620Z,99989.20
2022-12-31T06:12:03.721Z,99996.40
2022-12-31T06:14:31.794Z,100001.40
2022-12-31T06:16:59.727Z,100004.20
2022-12-31T06:19:27.975Z,100001.40
2022-12-31T06:21:55.991Z,99993.60
2022-12-31T06:24:24.044Z,99999.60
2022-12-31T06:26:51.848Z,100001.20
2022-12-31T06:29:19.800Z,99999.40
2022-12-31T06:31:47.651Z,100002.40
2022-12-31T06:34:15.613Z,100000.00
2022-12-31T06:36:43.431Z,99999.40
2022-12-31T06:39:11.298Z,100005.80
2022-12-31T06:41:39.265Z,100002.60
2022-12-31T06:44:07.191Z,100004.00
2022-12-31T06:46:35.073Z,99995.40
2022-12-31T06:49:03.129Z,100003.20
2022-12-31T06:51:31.032Z,100012.60
2022-12-31T06:53:58.862Z,100028.80
2022-12-31T06:56:34.731Z,100022.40
2022-12-31T06:59:05.119Z,100033.80
2022-12-31T07:02:26.317Z,100030.40
2022-12-31T07:05:21.124Z,100018.80
2022-12-31T07:08:26.038Z,100027.60
2022-12-31T07:11:02.025Z,100037.80
2022-12-31T07:14:28.535Z,100038.00
2022-12-31T07:17:13.745Z,100047.40
2022-12-31T07:20:05.012Z,100052.00
2022-12-31T07:22:33.564Z,100050.40
2022-12-31T07:25:02.176Z,100042.00
2022-12-31T07:28:02.692Z,100034.20
2022-12-31T07:30:48.576Z,100027.20
2022-12-31T07:33:42.222Z,100036.60
2022-12-31T07:36:44.748Z,100039.00
2022-12-31T07:39:41.604Z,100039.60
2022-12-31T07:42:49.709Z,100042.00
2022-12-31T07:45:47.833Z,100047.80
2022-12-31T07:48:28.448Z,100056.00
2022-12-31T07:50:58.213Z,100048.40
2022-12-31T07:53:27.317Z,100048.20
2022-12-31T07:56:00.227Z,100052.20
2022-12-31T07:58:53.385Z,100056.60
2022-12-31T08:01:46.781Z,100039.40
2022-12-31T08:04:32.513Z,100047.20
2022-12-31T08:07:30.101Z,100046.20
2022-12-31T08:10:17.735Z,100040.60
2022-12-31T08:12:50.316Z,100036.40
2022-12-31T08:15:20.590Z,100035.00
2022-12-31T08:17:51.387Z,100042.80
2022-12-31T08:20:19.912Z,100054.20
2022-12-31T08:23:32.031Z,100056.20
2022-12-31T08:26:28.446Z,100058.40
2022-12-31T08:29:22.146Z,100061.00
2022-12-31T08:32:08.419Z,100063.20
2022-12-31T08:35:18.792Z,100052.20
2022-12-31T08:38:27.516Z,100052.60
2022-12-31T08:41:32.862Z,100071.20
2022-12-31T08:44:36.310Z,100066.20
2022-12-31T08:47:42.430Z,100068.40
2022-12-31T08:50:17.490Z,100069.60
2022-12-31T08:52:48.451Z,100075.20
2022-12-31T08:55:19.551Z,100061.20
2022-12-31T08:57:55.877Z,100051.00
2022-12-31T09:00:24.391Z,100053.00
2022-12-31T09:03:17.184Z,100057.40
2022-12-31T09:06:06.241Z,100058.60
2022-12-31T09:08:47.910Z,100057.20
2022-12-31T09:11:53.466Z,100053.00
2022-12-31T09:14:44.151Z,100047.20
2022-12-31T09:17:24.099Z,100046.60
2022-12-31T09:19:52.386Z,100046.20
2022-12-31T09:22:20.781Z,100049.80
2022-12-31T09:25:08.057Z,100040.00
2022-12-31T09:27:52.344Z,100036.00
2022-12-31T09:30:20.433Z,100036.40
2022-12-31T09:33:55.716Z,100040.20
2022-12-31T09:36:38.304Z,100039.00
2022-12-31T09:39:19.837Z,100035.80
2022-12-31T09:42:40.893Z,100034.00
2022-12-31T09:45:57.643Z,100023.00
2022-12-31T09:49:08.565Z,100017.60
2022-12-31T09:51:48.193Z,100012.60
2022-12-31T09:54:22.139Z,100006.80
2022-12-31T09:57:24.333Z,100003.80
2022-12-31T10:00:11.089Z,99998.60
2022-12-31T10:03:25.366Z,99993.00
2022-12-31T10:06:24.679Z,99983.20
2022-12-31T10:09:48.653Z,99985.60
2022-12-31T10:13:20.283Z,99980.00
2022-12-31T10:16:13.295Z,99974.40
2022-12-31T10:19:06.912Z,99970.00
2022-12-31T10:22:14.405Z,99966.40
2022-12-31T10:24:45.307Z,99975.60
2022-12-31T10:27:44.230Z,99970.20
2022-12-31T10:30:22.971Z,99976.00
2022-12-31T10:33:00.710Z,99984.80
2022-12-31T10:35:48.699Z,99991.20
2022-12-31T10:38:34.592Z,99979.80
2022-12-31T10:41:37.084Z,99977.00
2022-12-31T10:45:09.063Z,99976.00
2022-12-31T10:47:58.010Z,99965.20
2022-12-31T10:51:05.205Z,99957.40
2022-12-31T10:54:07.213Z,99946.00
2022-12-31T10:57:33.074Z,99945.60
2022-12-31T11:00:23.118Z,99930.80
2022-12-31T11:03:32.155Z,99915.20
2022-12-31T11:06:15.249Z,99913.40
2022-12-31T11:09:39.620Z,99908.80
2022-12-31T11:12:38.717Z,99909.20
2022-12-31T11:15:21.884Z,99917.40
2022-12-31T11:18:39.309Z,99917.20
2022-12-31T11:21:48.234Z,99910.00
2022-12-31T11:24:37.302Z,99898.40
2022-12-31T11:27:30.698Z,99888.00
2022-12-31T11:30:05.625Z,99886.20
2022-12-31T11:33:10.462Z,99882.60
2022-12-31T11:36:08.185Z,99876.20
2022-12-31T11:39:36.922Z,99875.60
2022-12-31T11:42:40.828Z,99874.60
2022-12-31T11:45:50.497Z,99866.40
2022-12-31T11:49:20.883Z,99875.60
2022-12-31T11:52:28.652Z,99845.20
2022-12-31T11:55:15.962Z,99837.20
2022-12-31T11:57:50.732Z,99838.20
2022-12-31T12:00:26.782Z,99841.00
2022-12-31T12:03:06.373Z,99842.40
2022-12-31T12:05:36.496Z,99842.00
2022-12-31T12:08:04.465Z,99831.20
2022-12-31T12:10:46.880Z,99827.00
2022-12-31T12:13:17.753Z,99825.40
2022-12-31T12:15:51.473Z,99826.20
2022-12-31T12:18:47.043Z,99819.60
2022-12-31T12:21:21.908Z,99814.80
2022-12-31T12:24:03.988Z,99812.00
2022-12-31T12:26:41.683Z,99810.80
2022-12-31T12:29:34.795Z,99813.00
2022-12-31T12:32:21.971Z,99807.00
2022-12-31T12:34:50.330Z,99803.00
2022-12-31T12:37:24.284Z,99792.20
2022-12-31T12:40:09.565Z,99796.40
2022-12-31T12:42:51.257Z,99785.00
2022-12-31T12:45:36.508Z,99787.00
2022-12-31T12:48:21.897Z,99793.00
2022-12-31T12:50:50.346Z,99795.40
2022-12-31T12:54:18.551Z,99796.20
2022-12-31T12:57:04.481Z,99798.00
2022-12-31T13:00:01.830Z,99801.80
2022-12-31T13:03:10.540Z,99802.40
2022-12-31T13:06:13.662Z,99805.00
2022-12-31T13:09:16.277Z,99796.40
2022-12-31T13:12:07.052Z,99799.00
2022-12-31T13:14:57.173Z,99811.80
2022-12-31T13:18:05.166Z,99823.40
2022-12-31T13:20:56.061Z,99812.80
2022-12-31T13:23:47.526Z,99811.60
2022-12-31T13:26:38.188Z,99806.40
2022-12-31T13:29:17.314Z,99812.00
2022-12-31T13:31:48.961Z,99814.40
2022-12-31T13:34:29.951Z,99805.20
2022-12-31T13:37:11.846Z,99802.20
2022-12-31T13:39:44.940Z,99794.20
2022-12-31T13:42:28.751Z,99793.40
2022-12-31T13:45:04.259Z,99790.40
2022-12-31T13:47:39.147Z,99796.40
2022-12-31T13:50:25.685Z,99793.60
2022-12-31T13:53:00.188Z,99802.40
2022-12-31T13:55:40.301Z,99808.00
2022-12-31T13:58:37.251Z,99813.80
2022-12-31T14:01:46.357Z,99825.80
2022-12-31T14:04:39.423Z,99827.60
2022-12-31T14:07:20.108Z,99820.20
2022-12-31T14:09:48.121Z,99820.20
2022-12-31T14:12:30.045Z,99814.80
2022-12-31T14:15:20.782Z,99827.40
2022-12-31T14:18:05.980Z,99832.60
2022-12-31T14:21:11.694Z,99824.80
2022-12-31T14:23:56.419Z,99824.00
2022-12-31T14:26:40.095Z,99830.20
2022-12-31T14:29:11.162Z,99837.80
2022-12-31T14:31:54.355Z,99838.60
2022-12-31T14:34:56.244Z,99831.80
2022-12-31T14:37:45.858Z,99823.00
2022-12-31T14:41:03.161Z,99827.20
2022-12-31T14:44:01.135Z,99829.80
2022-12-31T14:46:52.105Z,99825.80
2022-12-31T14:50:17.144Z,99809.20
2022-12-31T14:53:06.519Z,99804.00
2022-12-31T14:55:42.979Z,99809.40
2022-12-31T14:58:43.695Z,99817.40
2022-12-31T15:01:19.102Z,99800.00
2022-12-31T15:03:47.291Z,99789.80
2022-12-31T15:07:06.561Z,99786.00
2022-12-31T15:10:02.287Z,99786.60
2022-12-31T15:12:56.506Z,99787.40
2022-12-31T15:15:53.283Z,99777.60
2022-12-31T15:18:38.735Z,99775.80
2022-12-31T15:21:34.999Z,99790.60
2022-12-31T15:24:25.579Z,99783.40
2022-12-31T15:27:02.158Z,99786.60
2022-12-31T15:29:36.581Z,99800.80
2022-12-31T15:32:10.037Z,99801.20
2022-12-31T15:34:38.003Z,99801.40
2022-12-31T15:37:29.975Z,99803.00
2022-12-31T15:40:29.347Z,99799.60
2022-12-31T15:43:19.397Z,99802.00
2022-12-31T15:45:48.463Z,99804.80
2022-12-31T15:48:52.655Z,99809.20
2022-12-31T15:51:30.090Z,99809.40
2022-12-31T15:54:01.034Z,99808.60
2022-12-31T15:56:41.795Z,99798.00
2022-12-31T15:59:17.192Z,99802.20
2022-12-31T16:01:47.847Z,99810.80
2022-12-31T16:05:20.716Z,99824.20
2022-12-31T16:08:59.301Z,99805.80
2022-12-31T16:11:30.839Z,99791.20
2022-12-31T16:14:00.127Z,99807.60
2022-12-31T16:16:38.246Z,99776.40
2022-12-31T16:19:51.814Z,99765.00
2022-12-31T16:22:37.067Z,99786.40
2022-12-31T16:28:09.284Z,99779.20
2022-12-31T16:31:07.085Z,99786.80
2022-12-31T16:33:35.572Z,99786.60
2022-12-31T16:36:05.352Z,99802.00
2022-12-31T16:38:37.906Z,99831.60
2022-12-31T16:41:21.033Z,99831.00
2022-12-31T16:43:52.107Z,99834.60
2022-12-31T16:46:20.427Z,99828.60
2022-12-31T16:49:09.161Z,99818.60
2022-12-31T16:51:38.239Z,99828.20
2022-12-31T16:54:21.437Z,99830.20
2022-12-31T16:56:50.147Z,99825.20
2022-12-31T16:59:34.768Z,99832.20
2022-12-31T17:02:17.609Z,99826.80
2022-12-31T17:04:56.052Z,99821.80
2022-12-31T17:07:32.431Z,99831.60
2022-12-31T17:10:07.761Z,99838.20
2022-12-31T17:13:25.336Z,99837.40
2022-12-31T17:15:43.306Z,99832.00
2022-12-31T17:18:26.409Z,99829.40
2022-12-31T17:21:04.420Z,99821.20
2022-12-31T17:23:42.597Z,99819.40
2022-12-31T17:26:15.576Z,99809.40
2022-12-31T17:28:50.249Z,99828.80
2022-12-31T17:31:45.297Z,99829.00
2022-12-31T17:34:23.299Z,99823.60
2022-12-31T17:37:10.552Z,99821.20
2022-12-31T17:40:40.943Z,99820.40
2022-12-31T17:42:52.201Z,99832.60
2022-12-31T17:45:23.508Z,99834.20
2022-12-31T17:47:58.474Z,99834.00
2022-12-31T17:50:28.239Z,99832.80
2022-12-31T17:53:02.387Z,99844.60
2022-12-31T17:55:30.776Z,99858.20
2022-12-31T17:58:03.901Z,99855.40
2022-12-31T18:00:33.679Z,99868.40
2022-12-31T18:03:01.977Z,99866.00
2022-12-31T18:05:30.756Z,99848.80
2022-12-31T18:07:58.752Z,99845.20
2022-12-31T18:10:31.812Z,99842.00
2022-12-31T18:13:08.527Z,99842.80
2022-12-31T18:15:37.101Z,99843.60
2022-12-31T18:18:27.120Z,99837.80
2022-12-31T18:21:09.391Z,99826.80
2022-12-31T18:23:46.897Z,99833.40
2022-12-31T18:26:25.662Z,99825.60
2022-12-31T18:28:54.010Z,99832.20
2022-12-31T18:31:32.866Z,99822.60
2022-12-31T18:34:01.295Z,99838.60
2022-12-31T18:36:30.025Z,99845.20
2022-12-31T18:38:58.424Z,99864.40
2022-12-31T18:41:33.453Z,99869.20
2022-12-31T18:44:13.409Z,99873.20
2022-12-31T18:46:43.728Z,99878.40
2022-12-31T18:49:14.934Z,99878.20
2022-12-31T18:51:43.183Z,99882.40
2022-12-31T18:54:17.052Z,99894.60
2022-12-31T18:56:51.300Z,99905.40
2022-12-31T18:59:22.286Z,99914.60
2022-12-31T19:01:50.732Z,99922.00
2022-12-31T19:04:27.640Z,99914.80
2022-12-31T19:06:57.100Z,99923.60
2022-12-31T19:12:15.205Z,99921.60
2022-12-31T19:14:45.815Z,99916.00
2022-12-31T19:17:14.676Z,99911.20
2022-12-31T19:19:42.922Z,99908.00
2022-12-31T19:22:18.153Z,99917.60
2022-12-31T19:24:46.503Z,99911.40
2022-12-31T19:27:15.071Z,99907.20
2022-12-31T19:29:46.198Z,99896.00
2022-12-31T19:32:22.893Z,99896.20
2022-12-31T19:34:51.269Z,99891.60
2022-12-31T19:37:21.009Z,99889.20
2022-12-31T19:39:48.959Z,99887.20
2022-12-31T19:42:16.915Z,99887.80
2022-12-31T19:44:45.169Z,99888.80
2022-12-31T19:47:14.160Z,99893.20
2022-12-31T19:49:44.645Z,99890.80
2022-12-31T19:52:14.011Z,99899.00
2022-12-31T19:54:42.132Z,99914.40
2022-12-31T19:57:10.367Z,99916.60
2022-12-31T19:59:43.528Z,99916.60
2022-12-31T20:02:11.555Z,99917.80
2022-12-31T20:04:39.704Z,99915.40
2022-12-31T20:07:07.575Z,99922.00
2022-12-31T20:09:35.463Z,99916.00
2022-12-31T20:12:03.524Z,99910.60
2022-12-31T20:14:33.195Z,99911.40
2022-12-31T20:17:01.368Z,99916.60
2022-12-31T20:19:29.396Z,99912.60
2022-12-31T20:21:57.231Z,99913.80
2022-12-31T20:24:25.188Z,99921.00
2022-12-31T20:26:53.037Z,99918.00
2022-12-31T20:29:21.106Z,99914.00
2022-12-31T20:31:48.983Z,99916.80
2022-12-31T20:34:16.885Z,99912.20
2022-12-31T20:36:44.767Z,99903.00
2022-12-31T20:39:12.759Z,99897.60
2022-12-31T20:41:40.654Z,99895.60
2022-12-31T20:44:08.618Z,99891.00
2022-12-31T20:46:37.176Z,99886.80
2022-12-31T20:49:05.722Z,99888.60
2022-12-31T20:51:35.442Z,99908.00
2022-12-31T20:54:08.631Z,99918.20
2022-12-31T20:56:39.756Z,99922.00
2022-12-31T20:59:10.073Z,99944.20
2022-12-31T21:02:18.941Z,99952.40
2022-12-31T21:04:26.858Z,99954.60
2022-12-31T21:06:55.002Z,99951.60
2022-12-31T21:09:22.877Z,99951.20
2022-12-31T21:12:09.400Z,99941.40
2022-12-31T21:14:42.824Z,99927.60
2022-12-31T21:17:12.599Z,99917.40
2022-12-31T21:19:40.516Z,99914.00
2022-12-31T21:22:08.778Z,99912.80
2022-12-31T21:24:36.752Z,99917.80
2022-12-31T21:27:05.484Z,99917.40
2022-12-31T21:29:35.532Z,99918.80
2022-12-31T21:32:04.980Z,99931.00
2022-12-31T21:34:33.380Z,99945.40
2022-12-31T21:37:01.312Z,99953.60
2022-12-31T21:39:29.230Z,99950.80
2022-12-31T21:41:58.440Z,99951.20
2022-12-31T21:44:28.449Z,99951.20
2022-12-31T21:47:36.515Z,99943.00
2022-12-31T21:50:07.641Z,99930.60
2022-12-31T21:52:38.593Z,99926.20
2022-12-31T21:55:26.081Z,99923.00
2022-12-31T22:01:03.768Z,99913.80
2022-12-31T22:03:32.462Z,99913.60
2022-12-31T22:06:12.932Z,99916.20
2022-12-31T22:08:43.920Z,99911.00
2022-12-31T22:11:13.708Z,99904.00
2022-12-31T22:13:41.894Z,99890.60
2022-12-31T22:16:10.323Z,99890.00
2022-12-31T22:18:40.665Z,99867.60
2022-12-31T22:21:20.401Z,99869.20
2022-12-31T22:23:52.279Z,99888.40
2022-12-31T22:26:24.284Z,99903.00
2022-12-31T22:28:52.800Z,99902.80
2022-12-31T22:31:26.714Z,99907.60
2022-12-31T22:33:54.697Z,99900.20
2022-12-31T22:36:24.280Z,99908.20
2022-12-31T22:38:58.324Z,99903.00
2022-12-31T22:41:27.904Z,99905.60
2022-12-31T22:44:03.157Z,99902.20
2022-12-31T22:46:34.929Z,99911.20
2022-12-31T22:49:04.424Z,99904.80
2022-12-31T22:51:55.963Z,99906.80
2022-12-31T22:54:21.581Z,99904.80
2022-12-31T22:56:59.581Z,99906.40
2022-12-31T22:59:28.598Z,99905.40
2022-12-31T23:01:56.942Z,99905.60
2022-12-31T23:04:24.946Z,99897.80
2022-12-31T23:06:52.933Z,99902.40
2022-12-31T23:09:40.062Z,99896.00
2022-12-31T23:12:10.370Z,99884.80
2022-12-31T23:14:57.231Z,99882.40
2022-12-31T23:17:46.465Z,99887.40
2022-12-31T23:20:37.316Z,99910.80
2022-12-31T23:23:10.114Z,99912.80
2022-12-31T23:25:51.121Z,99910.80
2022-12-31T23:28:25.129Z,99921.00
2022-12-31T23:30:53.800Z,99916.40
2022-12-31T23:33:25.552Z,99914.60
2022-12-31T23:36:11.597Z,99904.80
2022-12-31T23:38:39.458Z,99904.20
2022-12-31T23:41:16.897Z,99907.20
2022-12-31T23:43:45.653Z,99909.80
2022-12-31T23:46:14.966Z,99911.60
2022-12-31T23:48:43.678Z,99905.60
2022-12-31T23:51:11.808Z,99904.80
2022-12-31T23:53:39.960Z,99919.00
2022-12-31T23:56:22.826Z,99914.80
2022-12-31T23:58:56.105Z,99925.00
